createdAt,value
2023-08-14T00:01:39.163Z,55.48
2023-08-14T00:04:41.783Z,55.32
2023-08-14T00:07:43.949Z,55.28
2023-08-14T00:10:46.491Z,55.09
2023-08-14T00:13:49.486Z,54.67
2023-08-14T00:16:51.638Z,54.44
2023-08-14T00:19:54.036Z,54.74
2023-08-14T00:22:56.322Z,55.14
2023-08-14T00:25:58.611Z,55.37
2023-08-14T00:29:00.913Z,55.35
2023-08-14T00:32:03.308Z,55.65
2023-08-14T00:35:06.189Z,55.53
2023-08-14T00:38:08.467Z,55.35
2023-08-14T00:41:10.810Z,55.58
2023-08-14T00:44:13.887Z,55.42
2023-08-14T00:47:16.315Z,55.77
2023-08-14T00:50:19.856Z,55.51
2023-08-14T00:53:23.952Z,55.70
2023-08-14T00:56:29.288Z,56.15
2023-08-14T00:59:33.604Z,55.94
2023-08-14T01:02:36.168Z,56.14
2023-08-14T01:05:39.845Z,55.98
2023-08-14T01:08:42.743Z,56.33
2023-08-14T01:11:55.940Z,56.29
2023-08-14T01:15:03.534Z,56.63
2023-08-14T01:18:06.062Z,56.51
2023-08-14T01:21:12.458Z,56.64
2023-08-14T01:24:23.545Z,56.47
2023-08-14T01:27:26.039Z,56.34
2023-08-14T01:30:28.720Z,56.38
2023-08-14T01:33:31.100Z,56.30
2023-08-14T01:36:41.075Z,56.55
2023-08-14T01:39:48.500Z,56.41
2023-08-14T01:42:55.053Z,56.59
2023-08-14T01:45:58.065Z,56.69
2023-08-14T01:49:00.630Z,56.71
2023-08-14T01:52:03.490Z,56.79
2023-08-14T01:55:06.292Z,56.95
2023-08-14T01:58:08.573Z,56.87
2023-08-14T02:01:11.404Z,56.51
2023-08-14T02:04:13.583Z,56.98
2023-08-14T02:07:15.763Z,56.93
2023-08-14T02:10:18.166Z,57.40
2023-08-14T02:13:20.443Z,56.98
2023-08-14T02:16:22.889Z,57.32
2023-08-14T02:19:25.207Z,57.29
2023-08-14T02:22:27.579Z,57.05
2023-08-14T02:25:29.958Z,57.38
2023-08-14T02:28:32.293Z,57.22
2023-08-14T02:31:34.583Z,57.27
2023-08-14T02:34:46.186Z,57.33
2023-08-14T02:37:48.444Z,57.47
2023-08-14T02:40:51.729Z,57.89
2023-08-14T02:43:54.418Z,57.76
2023-08-14T02:46:57.868Z,57.72
2023-08-14T02:50:00.155Z,58.03
2023-08-14T02:53:02.562Z,58.27
2023-08-14T02:56:04.960Z,58.17
2023-08-14T02:59:07.360Z,58.45
2023-08-14T03:02:09.771Z,58.25
2023-08-14T03:05:12.095Z,58.44
2023-08-14T03:08:14.371Z,58.33
2023-08-14T03:11:16.762Z,58.40
2023-08-14T03:14:19.061Z,58.48
2023-08-14T03:17:21.515Z,58.65
2023-08-14T03:20:23.796Z,58.32
2023-08-14T03:23:27.052Z,58.68
2023-08-14T03:26:29.320Z,58.32
2023-08-14T03:29:32.745Z,58.29
2023-08-14T03:32:35.298Z,58.34
2023-08-14T03:35:39.832Z,58.65
2023-08-14T03:38:42.633Z,59.16
2023-08-14T03:41:45.830Z,58.94
2023-08-14T03:44:51.467Z,58.84
2023-08-14T03:47:54.118Z,59.01
2023-08-14T03:50:56.398Z,58.35
2023-08-14T03:53:58.696Z,58.44
2023-08-14T03:57:01.075Z,58.30
2023-08-14T04:00:04.182Z,57.86
2023-08-14T04:03:15.040Z,58.24
2023-08-14T04:06:17.286Z,58.51
2023-08-14T04:09:19.621Z,58.71
2023-08-14T04:12:21.888Z,57.32
2023-08-14T04:15:24.443Z,57.91
2023-08-14T04:18:27.840Z,57.71
2023-08-14T04:21:30.083Z,57.52
2023-08-14T04:24:32.317Z,57.36
2023-08-14T04:27:38.702Z,55.77
2023-08-14T04:30:41.134Z,55.78
2023-08-14T04:33:43.493Z,56.51
2023-08-14T04:36:45.950Z,56.29
2023-08-14T04:39:49.369Z,55.92
2023-08-14T04:42:51.705Z,56.36
2023-08-14T04:45:54.067Z,55.10
2023-08-14T04:48:56.354Z,55.43
2023-08-14T04:52:00.126Z,54.77
2023-08-14T04:55:02.546Z,54.65
2023-08-14T04:58:09.535Z,53.87
2023-08-14T05:01:12.768Z,54.64
2023-08-14T05:04:16.283Z,53.22
2023-08-14T05:07:18.562Z,53.73
2023-08-14T05:10:20.746Z,52.85
2023-08-14T05:13:23.232Z,52.88
2023-08-14T05:16:26.359Z,51.90
2023-08-14T05:19:28.821Z,52.33
2023-08-14T05:22:31.179Z,52.31
2023-08-14T05:25:33.524Z,51.13
2023-08-14T05:28:35.905Z,49.67
2023-08-14T05:31:38.365Z,49.37
2023-08-14T05:34:40.594Z,48.56
2023-08-14T05:37:43.097Z,48.12
2023-08-14T05:40:45.454Z,47.59
2023-08-14T05:43:47.827Z,47.11
2023-08-14T05:46:50.216Z,47.07
2023-08-14T05:49:52.469Z,45.84
2023-08-14T05:53:00.376Z,45.17
2023-08-14T05:56:02.675Z,44.57
2023-08-14T05:59:04.912Z,43.64
2023-08-14T06:02:07.148Z,44.02
2023-08-14T06:05:10.067Z,43.61
2023-08-14T06:08:12.384Z,42.99
2023-08-14T06:11:14.536Z,42.81
2023-08-14T06:14:17.892Z,42.46
2023-08-14T06:17:20.185Z,42.10
2023-08-14T06:20:22.652Z,40.88
2023-08-14T06:23:24.955Z,40.27
2023-08-14T06:26:27.362Z,39.84
2023-08-14T06:29:29.586Z,39.73
2023-08-14T06:32:31.899Z,39.22
2023-08-14T06:35:34.079Z,38.32
2023-08-14T06:38:36.486Z,37.62
2023-08-14T06:41:38.796Z,37.17
2023-08-14T06:44:41.787Z,35.83
2023-08-14T06:47:45.852Z,34.84
2023-08-14T06:50:48.238Z,33.99
2023-08-14T06:53:50.646Z,33.99
2023-08-14T06:56:53.526Z,33.08
2023-08-14T06:59:55.955Z,31.64
2023-08-14T07:02:58.289Z,32.53
2023-08-14T07:06:00.641Z,31.40
2023-08-14T07:09:03.140Z,30.16
2023-08-14T07:12:05.801Z,29.26
2023-08-14T07:15:12.027Z,28.86
2023-08-14T07:18:19.482Z,28.37
2023-08-14T07:21:21.767Z,27.51
2023-08-14T07:24:25.478Z,27.70
2023-08-14T07:27:27.851Z,26.96
2023-08-14T07:30:30.119Z,26.37
2023-08-14T07:33:32.510Z,25.43
2023-08-14T07:36:37.523Z,24.49
2023-08-14T07:39:40.432Z,24.85
2023-08-14T07:42:42.770Z,23.55
2023-08-14T07:45:45.206Z,23.98
2023-08-14T07:48:47.567Z,22.00
2023-08-14T07:51:50.414Z,20.85
2023-08-14T07:54:52.775Z,20.19
2023-08-14T07:57:55.356Z,19.62
2023-08-14T08:00:57.645Z,19.75
2023-08-14T08:04:00.573Z,18.76
2023-08-14T08:07:05.825Z,19.49
2023-08-14T08:10:09.044Z,18.09
2023-08-14T08:13:11.362Z,17.93
2023-08-14T08:16:13.740Z,18.21
2023-08-14T08:19:16.428Z,18.15
2023-08-14T08:22:19.120Z,17.68
2023-08-14T08:25:21.832Z,17.40
2023-08-14T08:28:24.172Z,16.42
2023-08-14T08:31:26.642Z,16.36
2023-08-14T08:34:29.005Z,16.58
2023-08-14T08:37:31.325Z,16.65
2023-08-14T08:40:33.952Z,17.38
2023-08-14T08:43:36.449Z,19.87
2023-08-14T08:46:44.494Z,22.08
2023-08-14T08:49:47.397Z,22.66
2023-08-14T08:52:51.713Z,24.16
2023-08-14T08:55:54.692Z,24.32
2023-08-14T08:58:57.016Z,25.40
2023-08-14T09:01:59.309Z,25.19
2023-08-14T09:05:01.882Z,25.70
2023-08-14T09:08:04.710Z,26.77
2023-08-14T09:11:07.356Z,27.14
2023-08-14T09:14:09.758Z,27.34
2023-08-14T09:17:14.072Z,27.13
2023-08-14T09:20:20.131Z,26.72
2023-08-14T09:23:35.891Z,28.09
2023-08-14T09:26:38.320Z,28.11
2023-08-14T09:29:40.715Z,28.97
2023-08-14T09:32:43.363Z,28.82
2023-08-14T09:35:53.508Z,29.04
2023-08-14T09:38:56.419Z,28.23
2023-08-14T09:41:59.127Z,28.92
2023-08-14T09:45:03.134Z,29.17
2023-08-14T09:48:06.023Z,28.56
2023-08-14T09:51:12.949Z,29.58
2023-08-14T09:54:15.219Z,29.74
2023-08-14T09:57:18.504Z,30.53
2023-08-14T10:00:21.008Z,30.44
2023-08-14T10:03:24.101Z,30.16
2023-08-14T10:06:27.222Z,30.48
2023-08-14T10:09:29.731Z,31.04
2023-08-14T10:12:36.988Z,31.47
2023-08-14T10:15:47.842Z,31.29
2023-08-14T10:18:51.073Z,31.48
2023-08-14T10:21:54.806Z,31.29
2023-08-14T10:24:57.210Z,31.63
2023-08-14T10:27:59.840Z,31.84
2023-08-14T10:31:02.884Z,31.61
2023-08-14T10:34:05.733Z,31.39
2023-08-14T10:37:07.991Z,32.20
2023-08-14T10:40:24.132Z,31.38
2023-08-14T10:43:27.678Z,31.90
2023-08-14T10:46:30.109Z,31.41
2023-08-14T10:49:46.181Z,31.54
2023-08-14T10:52:49.608Z,31.13
2023-08-14T10:55:52.629Z,31.44
2023-08-14T10:58:55.063Z,31.76
2023-08-14T11:02:27.288Z,32.15
2023-08-14T11:05:39.067Z,31.95
2023-08-14T11:08:46.057Z,31.27
2023-08-14T11:11:56.495Z,31.20
2023-08-14T11:14:58.931Z,31.79
2023-08-14T11:18:02.433Z,32.49
2023-08-14T11:21:23.595Z,32.69
2023-08-14T11:24:27.424Z,32.90
2023-08-14T11:27:29.897Z,32.87
2023-08-14T11:30:34.791Z,32.47
2023-08-14T11:33:37.393Z,32.45
2023-08-14T11:36:43.515Z,32.42
2023-08-14T11:39:46.148Z,32.66
2023-08-14T11:42:48.653Z,32.87
2023-08-14T11:45:51.093Z,33.18
2023-08-14T11:48:53.769Z,32.13
2023-08-14T11:51:56.200Z,32.46
2023-08-14T11:54:59.166Z,32.84
2023-08-14T11:58:01.760Z,32.45
2023-08-14T12:01:04.517Z,32.22
2023-08-14T12:04:08.254Z,32.18
2023-08-14T12:07:10.953Z,32.70
2023-08-14T12:10:16.284Z,32.55
2023-08-14T12:13:21.351Z,32.51
2023-08-14T12:16:26.181Z,32.61
2023-08-14T12:19:31.165Z,32.86
2023-08-14T12:22:33.475Z,32.50
2023-08-14T12:25:35.717Z,31.68
2023-08-14T12:28:37.884Z,32.48
2023-08-14T12:31:40.572Z,32.39
2023-08-14T12:34:43.074Z,33.09
2023-08-14T12:37:45.334Z,33.27
2023-08-14T12:40:47.667Z,33.38
2023-08-14T12:43:50.124Z,33.43
2023-08-14T12:46:54.766Z,33.69
2023-08-14T12:49:58.233Z,33.39
2023-08-14T12:53:00.544Z,33.62
2023-08-14T12:56:03.915Z,33.98
2023-08-14T12:59:07.977Z,33.88
2023-08-14T13:02:10.328Z,33.80
2023-08-14T13:05:12.691Z,33.45
2023-08-14T13:08:15.034Z,33.15
2023-08-14T13:11:19.422Z,33.13
2023-08-14T13:14:21.739Z,32.32
2023-08-14T13:17:24.253Z,31.91
2023-08-14T13:20:26.618Z,32.01
2023-08-14T13:23:29.024Z,31.86
2023-08-14T13:26:34.129Z,32.44
2023-08-14T13:29:38.574Z,32.19
2023-08-14T13:32:41.414Z,32.41
2023-08-14T13:35:44.228Z,32.22
2023-08-14T13:38:46.525Z,32.01
2023-08-14T13:41:48.692Z,32.51
2023-08-14T13:44:51.457Z,32.56
2023-08-14T13:47:56.373Z,32.65
2023-08-14T13:50:59.488Z,32.02
2023-08-14T13:54:01.963Z,33.04
2023-08-14T13:57:04.298Z,32.89
2023-08-14T14:00:07.289Z,32.62
2023-08-14T14:03:11.103Z,32.06
2023-08-14T14:06:13.514Z,32.35
2023-08-14T14:09:15.665Z,32.57
2023-08-14T14:12:17.970Z,32.31
2023-08-14T14:15:20.401Z,32.31
2023-08-14T14:18:22.696Z,32.71
2023-08-14T14:21:24.868Z,32.99
2023-08-14T14:24:27.766Z,32.85
2023-08-14T14:27:30.043Z,32.79
2023-08-14T14:30:32.245Z,32.85
2023-08-14T14:33:34.553Z,32.82
2023-08-14T14:36:36.980Z,32.72
2023-08-14T14:39:39.316Z,32.48
2023-08-14T14:42:41.563Z,32.86
2023-08-14T14:45:43.754Z,32.76
2023-08-14T14:48:45.978Z,32.76
2023-08-14T14:51:48.810Z,32.60
2023-08-14T14:54:51.141Z,32.79
2023-08-14T14:57:53.316Z,32.60
2023-08-14T15:00:55.527Z,32.78
2023-08-14T15:03:57.941Z,33.15
2023-08-14T15:07:00.235Z,33.31
2023-08-14T15:10:02.318Z,33.39
2023-08-14T15:13:04.583Z,33.78
2023-08-14T15:16:06.930Z,33.70
2023-08-14T15:19:09.134Z,33.77
2023-08-14T15:22:11.274Z,33.69
2023-08-14T15:25:13.683Z,33.76
2023-08-14T15:28:16.021Z,33.80
2023-08-14T15:31:18.194Z,34.01
2023-08-14T15:34:20.359Z,33.29
2023-08-14T15:37:22.672Z,33.97
2023-08-14T15:40:25.686Z,34.31
2023-08-14T15:43:28.050Z,34.34
2023-08-14T15:46:30.237Z,34.46
2023-08-14T15:49:32.421Z,34.48
2023-08-14T15:52:34.511Z,34.38
2023-08-14T15:55:39.842Z,34.42
2023-08-14T15:58:42.098Z,33.65
2023-08-14T16:01:44.214Z,34.15
2023-08-14T16:04:46.694Z,34.00
2023-08-14T16:07:48.972Z,34.18
2023-08-14T16:10:51.105Z,34.54
2023-08-14T16:13:53.234Z,34.38
2023-08-14T16:16:55.596Z,34.57
2023-08-14T16:19:57.956Z,34.25
2023-08-14T16:23:00.253Z,34.09
2023-08-14T16:26:02.407Z,34.00
2023-08-14T16:29:04.928Z,33.73
2023-08-14T16:32:07.267Z,33.56
2023-08-14T16:35:09.529Z,33.96
2023-08-14T16:38:11.828Z,33.68
2023-08-14T16:41:14.081Z,33.75
2023-08-14T16:44:16.228Z,33.50
2023-08-14T16:47:18.776Z,34.10
2023-08-14T16:50:21.299Z,33.86
2023-08-14T16:53:23.434Z,34.24
2023-08-14T16:56:25.582Z,34.41
2023-08-14T16:59:27.859Z,34.52
2023-08-14T17:02:30.062Z,34.29
2023-08-14T17:05:32.948Z,34.44
2023-08-14T17:08:37.062Z,34.39
2023-08-14T17:11:40.632Z,34.50
2023-08-14T17:14:45.201Z,34.24
2023-08-14T17:17:47.618Z,34.13
2023-08-14T17:20:49.913Z,34.47
2023-08-14T17:23:52.047Z,34.04
2023-08-14T17:26:54.238Z,34.34
2023-08-14T17:29:56.589Z,34.08
2023-08-14T17:32:59.011Z,34.47
2023-08-14T17:36:01.231Z,34.11
2023-08-14T17:39:04.565Z,34.40
2023-08-14T17:42:06.743Z,34.64
2023-08-14T17:45:09.031Z,34.46
2023-08-14T17:48:11.345Z,34.83
2023-08-14T17:51:13.621Z,34.43
2023-08-14T17:54:15.922Z,34.50
2023-08-14T17:57:18.020Z,34.76
2023-08-14T18:00:20.230Z,34.81
2023-08-14T18:03:22.596Z,34.68
2023-08-14T18:06:25.445Z,35.46
2023-08-14T18:09:27.682Z,35.31
2023-08-14T18:12:29.892Z,35.88
2023-08-14T18:15:32.115Z,35.67
2023-08-14T18:18:34.386Z,36.14
2023-08-14T18:21:37.025Z,35.83
2023-08-14T18:24:39.276Z,36.00
2023-08-14T18:27:41.493Z,36.29
2023-08-14T18:30:43.804Z,36.07
2023-08-14T18:33:45.914Z,36.40
2023-08-14T18:36:48.162Z,37.74
2023-08-14T18:39:50.352Z,37.88
2023-08-14T18:42:52.524Z,38.06
2023-08-14T18:45:54.989Z,38.34
2023-08-14T18:48:57.340Z,38.31
2023-08-14T18:51:59.542Z,38.83
2023-08-14T18:55:04.768Z,39.18
2023-08-14T18:58:07.593Z,39.46
2023-08-14T19:01:09.977Z,39.79
2023-08-14T19:04:12.478Z,40.51
2023-08-14T19:07:14.904Z,40.73
2023-08-14T19:10:17.091Z,41.10
2023-08-14T19:13:19.235Z,40.98
2023-08-14T19:16:21.444Z,41.38
2023-08-14T19:19:23.624Z,41.55
2023-08-14T19:22:25.984Z,41.69
2023-08-14T19:25:28.224Z,41.83
2023-08-14T19:28:30.366Z,42.16
2023-08-14T19:31:32.749Z,42.25
2023-08-14T19:34:35.043Z,42.27
2023-08-14T19:37:37.315Z,42.48
2023-08-14T19:40:39.598Z,42.31
2023-08-14T19:43:41.846Z,42.41
2023-08-14T19:46:44.277Z,42.59
2023-08-14T19:49:46.823Z,43.10
2023-08-14T19:52:49.120Z,42.67
2023-08-14T19:55:51.454Z,43.18
2023-08-14T19:58:53.699Z,48.16
2023-08-14T20:01:57.496Z,45.55
2023-08-14T20:04:59.758Z,48.68
2023-08-14T20:08:01.992Z,48.46
2023-08-14T20:11:04.804Z,48.98
2023-08-14T20:14:08.727Z,49.78
2023-08-14T20:17:10.974Z,50.05
2023-08-14T20:20:20.436Z,48.63
2023-08-14T20:23:23.258Z,49.90
2023-08-14T20:26:25.541Z,49.54
2023-08-14T20:29:33.859Z,49.99
2023-08-14T20:32:36.564Z,50.30
2023-08-14T20:35:45.849Z,50.48
2023-08-14T20:38:48.734Z,50.21
2023-08-14T20:41:51.054Z,49.09
2023-08-14T20:44:53.307Z,50.46
2023-08-14T20:47:56.181Z,51.18
2023-08-14T20:51:01.066Z,51.35
2023-08-14T20:54:03.602Z,51.31
2023-08-14T20:57:05.892Z,52.44
2023-08-14T21:00:08.818Z,51.69
2023-08-14T21:03:16.125Z,51.41
2023-08-14T21:06:18.916Z,51.10
2023-08-14T21:09:21.609Z,51.13
2023-08-14T21:12:23.906Z,51.31
2023-08-14T21:15:26.346Z,51.46
2023-08-14T21:18:29.886Z,50.80
2023-08-14T21:21:32.273Z,50.98
2023-08-14T21:24:34.535Z,51.11
2023-08-14T21:27:36.795Z,51.22
2023-08-14T21:30:39.023Z,52.08
2023-08-14T21:33:41.264Z,49.98
2023-08-14T21:36:43.948Z,51.77
2023-08-14T21:39:46.214Z,50.74
2023-08-14T21:42:48.592Z,52.13
2023-08-14T21:45:50.863Z,52.36
2023-08-14T21:48:53.182Z,51.26
2023-08-14T21:51:55.549Z,52.38
2023-08-14T21:54:58.235Z,50.66
2023-08-14T21:58:00.521Z,51.64
2023-08-14T22:01:02.827Z,48.56
2023-08-14T22:04:05.357Z,51.50
2023-08-14T22:07:07.622Z,51.60
2023-08-14T22:10:11.135Z,51.02
2023-08-14T22:13:13.519Z,49.12
2023-08-14T22:16:15.775Z,52.19
2023-08-14T22:19:18.124Z,52.75
2023-08-14T22:22:20.447Z,52.92
2023-08-14T22:25:23.005Z,49.39
2023-08-14T22:28:25.401Z,51.82
2023-08-14T22:31:27.710Z,50.35
2023-08-14T22:34:29.997Z,52.19
2023-08-14T22:37:32.249Z,51.73
2023-08-14T22:40:34.539Z,50.34
2023-08-14T22:43:36.789Z,49.83
2023-08-14T22:46:39.017Z,51.16
2023-08-14T22:49:41.263Z,50.79
2023-08-14T22:52:43.530Z,51.49
2023-08-14T22:55:48.399Z,51.17
2023-08-14T22:58:50.690Z,49.53
2023-08-14T23:01:52.982Z,51.39
2023-08-14T23:04:55.239Z,52.07
2023-08-14T23:07:57.545Z,52.43
2023-08-14T23:10:59.770Z,51.21
2023-08-14T23:14:02.001Z,49.90
2023-08-14T23:17:04.465Z,52.30
2023-08-14T23:20:06.966Z,50.78
2023-08-14T23:23:09.174Z,52.88
2023-08-14T23:26:11.539Z,52.90
2023-08-14T23:29:14.172Z,53.15
2023-08-14T23:32:16.318Z,52.78
2023-08-14T23:35:18.702Z,53.45
2023-08-14T23:38:21.021Z,51.07
2023-08-14T23:41:23.270Z,52.56
2023-08-14T23:44:25.641Z,53.77
2023-08-14T23:47:27.925Z,54.19
2023-08-14T23:50:30.139Z,54.03
2023-08-14T23:53:32.569Z,53.14
2023-08-14T23:56:34.853Z,53.69
2023-08-14T23:59:37.111Z,50.98
